Time;durP1;ratioP1;P1;durP2;ratioP2;P2;SDS_P1;SDS_P2;PMS_P1;PMS_P2;Temp;Humidity;BMP_temperature;BMP_pressure;BME280_temperature;BME280_humidity;BME280_pressure;Samples;Min_cycle;Max_cycle;Signal;HPM_P1;HPM_P2
2023/01/02 00:00:36;;;;;;;43.08;25.27;;;;;;;4.64;75.03;102230.64;1761844;81;25694;-60
2023/01/02 00:03:05;;;;;;;53.00;26.57;;;;;;;4.62;74.86;102226.69;1764104;81;25692;-61
2023/01/02 00:05:32;;;;;;;45.67;26.50;;;;;;;4.58;74.74;102227.75;1764373;81;25969;-60
2023/01/02 00:07:59;;;;;;;48.80;27.13;;;;;;;4.53;74.54;102225.27;1764570;80;27453;-60
2023/01/02 00:10:25;;;;;;;49.40;27.17;;;;;;;4.49;74.44;102234.30;1781013;78;25710;-60
2023/01/02 00:12:53;;;;;;;45.67;27.17;;;;;;;4.42;74.54;102226.63;1815218;78;25766;-60
2023/01/02 00:15:19;;;;;;;46.73;26.48;;;;;;;4.37;74.15;102233.47;1774333;80;25861;-59
2023/01/02 00:17:46;;;;;;;48.13;27.32;;;;;;;4.29;74.08;102235.09;1766160;80;25723;-60
2023/01/02 00:20:13;;;;;;;46.55;26.02;;;;;;;4.22;74.09;102239.78;1743430;82;27468;-60
2023/01/02 00:22:40;;;;;;;44.35;25.40;;;;;;;4.16;73.98;102244.49;1737567;82;27336;-59
2023/01/02 00:25:07;;;;;;;42.73;25.55;;;;;;;4.06;73.94;102246.17;1703137;83;25736;-59
2023/01/02 00:27:34;;;;;;;48.25;27.45;;;;;;;3.99;73.87;102254.44;1743546;80;25843;-59
2023/01/02 00:30:01;;;;;;;53.02;30.43;;;;;;;3.91;73.91;102244.06;1743357;82;25787;-60
2023/01/02 00:32:28;;;;;;;46.45;27.50;;;;;;;3.83;73.92;102243.03;1743454;82;27450;-58
2023/01/02 00:34:54;;;;;;;44.15;28.10;;;;;;;3.76;73.92;102242.38;1733479;82;25699;-59
2023/01/02 00:37:22;;;;;;;54.98;27.15;;;;;;;3.70;73.99;102239.95;1738758;81;25540;-59
2023/01/02 00:39:49;;;;;;;48.85;27.50;;;;;;;3.66;73.95;102237.45;1759071;81;25785;-60
2023/01/02 00:42:16;;;;;;;45.95;26.33;;;;;;;3.60;74.00;102235.88;1763215;81;26082;-60
2023/01/02 00:44:43;;;;;;;40.70;24.95;;;;;;;3.55;74.02;102236.03;1758967;81;27635;-60
2023/01/02 00:47:10;;;;;;;39.98;25.82;;;;;;;3.53;74.20;102237.02;1734947;81;26226;-60
2023/01/02 00:49:37;;;;;;;45.12;25.60;;;;;;;3.50;74.37;102231.80;1741722;81;25736;-60
2023/01/02 00:52:04;;;;;;;41.40;24.87;;;;;;;3.49;74.60;102233.61;1727957;81;26567;-60
2023/01/02 00:54:31;;;;;;;41.05;24.77;;;;;;;3.49;74.73;102232.27;1740078;80;25463;-60
2023/01/02 00:56:58;;;;;;;42.78;23.85;;;;;;;3.48;74.80;102240.29;1730198;81;27677;-60
2023/01/02 00:59:25;;;;;;;40.70;24.92;;;;;;;3.45;74.88;102239.47;1737258;81;25816;-60
2023/01/02 01:01:52;;;;;;;40.98;24.47;;;;;;;3.45;75.11;102239.94;1737183;80;25711;-60
2023/01/02 01:04:20;;;;;;;40.73;23.75;;;;;;;3.43;75.30;102229.36;1719242;81;25866;-60
2023/01/02 01:06:46;;;;;;;35.10;22.15;;;;;;;3.44;75.53;102235.09;1717237;81;25703;-60
2023/01/02 01:09:13;;;;;;;40.23;23.60;;;;;;;3.48;75.66;102231.86;1713039;82;27487;-60
2023/01/02 01:11:40;;;;;;;44.13;24.23;;;;;;;3.53;75.76;102243.67;1718125;82;25451;-60
2023/01/02 01:14:07;;;;;;;43.05;24.95;;;;;;;3.54;75.51;102241.42;1736748;82;26433;-61
2023/01/02 01:16:34;;;;;;;41.60;23.55;;;;;;;3.54;75.34;102241.42;1737916;82;25824;-60
2023/01/02 01:19:00;;;;;;;41.88;24.02;;;;;;;3.56;75.39;102239.55;1716275;82;26182;-60
2023/01/02 01:21:27;;;;;;;35.20;23.25;;;;;;;3.57;75.32;102239.52;1713119;82;28387;-61
2023/01/02 01:23:55;;;;;;;39.25;23.45;;;;;;;3.57;75.23;102239.96;1727225;82;25898;-60
2023/01/02 01:26:22;;;;;;;43.65;23.62;;;;;;;3.59;75.36;102239.45;1746296;81;25671;-60
2023/01/02 01:28:52;;;;;;;38.17;24.50;;;;;;;3.60;75.26;102234.55;1737854;82;26537;-60
2023/01/02 01:31:19;;;;;;;45.60;25.92;;;;;;;3.59;75.36;102238.98;1728887;82;25498;-60
2023/01/02 01:33:47;;;;;;;41.98;24.60;;;;;;;3.54;75.25;102237.44;1708756;83;28220;-60
2023/01/02 01:36:18;;;;;;;39.90;25.15;;;;;;;3.52;74.91;102235.28;1765068;80;25702;-60
2023/01/02 01:38:47;;;;;;;39.73;24.43;;;;;;;3.47;74.75;102239.44;1781135;80;25491;-60
2023/01/02 01:41:18;;;;;;;40.55;25.55;;;;;;;3.40;74.55;102232.59;1776725;79;25930;-60
2023/01/02 01:43:57;;;;;;;42.90;24.92;;;;;;;3.32;74.29;102231.52;1768807;79;26501;-59
2023/01/02 01:46:38;;;;;;;42.67;25.57;;;;;;;3.25;74.31;102239.31;1755682;81;27518;-60
2023/01/02 01:49:27;;;;;;;42.83;23.60;;;;;;;3.18;74.28;102233.33;1764288;80;25767;-61
2023/01/02 01:52:00;;;;;;;40.78;24.32;;;;;;;3.10;74.04;102234.91;1762160;80;25729;-60
2023/01/02 01:54:32;;;;;;;44.77;25.70;;;;;;;3.03;74.07;102231.19;1760191;80;26741;-60
2023/01/02 01:57:14;;;;;;;41.00;24.92;;;;;;;2.94;74.06;102236.34;1775396;80;25479;-60
2023/01/02 01:59:41;;;;;;;44.83;25.12;;;;;;;2.89;73.98;102233.83;1761859;80;27551;-59
2023/01/02 02:02:09;;;;;;;45.17;24.45;;;;;;;2.82;74.01;102225.66;1758784;81;25799;-60
2023/01/02 02:04:36;;;;;;;40.73;24.85;;;;;;;2.80;74.19;102227.48;1759031;81;25751;-60
2023/01/02 02:07:04;;;;;;;42.55;24.25;;;;;;;2.78;74.47;102224.03;1758880;81;26464;-60
2023/01/02 02:09:41;;;;;;;43.05;25.12;;;;;;;2.79;74.54;102231.06;1759469;81;25704;-60
2023/01/02 02:12:09;;;;;;;41.10;23.80;;;;;;;2.78;74.65;102234.19;1751975;81;27466;-60
2023/01/02 02:14:36;;;;;;;39.42;23.42;;;;;;;2.76;75.06;102232.03;1743079;80;25836;-59
2023/01/02 02:17:23;;;;;;;37.50;22.67;;;;;;;2.74;74.99;102235.19;1742898;82;26541;-60
2023/01/02 02:20:13;;;;;;;38.85;22.93;;;;;;;2.77;75.17;102228.46;1742944;82;25819;-60
2023/01/02 02:23:06;;;;;;;44.45;24.80;;;;;;;2.80;75.42;102230.14;1732819;80;25779;-59
2023/01/02 02:26:01;;;;;;;38.08;23.52;;;;;;;2.85;75.43;102227.34;1742367;82;29617;-59
2023/01/02 02:28:45;;;;;;;41.13;22.73;;;;;;;2.88;75.44;102228.10;1743255;81;26509;-61
2023/01/02 02:31:24;;;;;;;;;;;;;;;2.88;75.31;102220.13;1744837;82;25784;-60
2023/01/02 02:34:11;;;;;;;36.40;22.25;;;;;;;2.90;75.50;102221.42;1742951;82;26704;-60
2023/01/02 02:36:50;;;;;;;42.10;23.55;;;;;;;2.92;75.32;102222.22;1742837;81;25781;-59
2023/01/02 02:39:40;;;;;;;38.20;23.32;;;;;;;2.92;75.42;102218.23;1712017;83;29615;-59
2023/01/02 02:42:27;;;;;;;40.92;23.57;;;;;;;2.93;75.43;102228.84;1711495;83;25743;-59
2023/01/02 02:45:08;;;;;;;35.55;22.75;;;;;;;2.89;75.21;102224.53;1711876;81;25685;-60
2023/01/02 02:47:53;;;;;;;41.95;23.47;;;;;;;2.88;75.33;102228.58;1719567;81;26446;-59
2023/01/02 02:50:35;;;;;;;;;;;;;;;2.91;75.46;102228.02;1740762;81;25735;-59
2023/01/02 02:53:19;;;;;;;40.65;23.07;;;;;;;2.92;75.47;102236.84;1758992;81;27553;-59
2023/01/02 02:55:51;;;;;;;42.50;25.00;;;;;;;2.86;75.03;102237.94;1758816;81;25895;-60
2023/01/02 02:58:20;;;;;;;43.28;24.70;;;;;;;2.84;74.96;102243.76;1758859;81;25501;-59
2023/01/02 03:00:47;;;;;;;39.75;24.55;;;;;;;2.83;75.20;102251.32;1762058;81;25780;-60
2023/01/02 03:03:21;;;;;;;40.28;24.32;;;;;;;2.84;75.20;102249.52;1763856;81;25739;-60
2023/01/02 03:06:18;;;;;;;39.55;23.27;;;;;;;2.81;75.17;102247.39;1755759;81;28211;-60
2023/01/02 03:09:19;;;;;;;42.45;23.65;;;;;;;2.82;75.26;102245.59;1781630;80;25721;-60
2023/01/02 03:12:16;;;;;;;48.20;25.85;;;;;;;2.80;75.54;102247.42;1691669;81;25815;-60
2023/01/02 03:14:59;;;;;;;46.58;26.97;;;;;;;2.79;75.41;102245.23;1748315;82;27040;-60
2023/01/02 03:17:34;;;;;;;42.03;25.40;;;;;;;2.78;75.26;102248.81;1748002;82;25810;-60
2023/01/02 03:20:12;;;;;;;44.80;27.32;;;;;;;2.74;75.19;102253.80;1722961;82;28201;-60
2023/01/02 03:22:44;;;;;;;41.30;26.02;;;;;;;2.71;75.01;102248.59;1748604;82;25826;-60
2023/01/02 03:25:14;;;;;;;43.63;25.62;;;;;;;2.66;74.76;102251.41;1748447;82;25773;-61
2023/01/02 03:27:44;;;;;;;45.90;27.50;;;;;;;2.60;74.46;102258.69;1748388;82;25786;-60
2023/01/02 03:30:21;;;;;;;46.83;26.30;;;;;;;2.50;74.58;102256.31;1748326;82;25824;-60
2023/01/02 03:33:08;;;;;;;46.42;25.77;;;;;;;2.45;74.67;102252.06;1748167;81;27439;-60
2023/01/02 03:35:41;;;;;;;43.63;25.32;;;;;;;2.40;74.73;102252.67;1747879;80;25823;-60
2023/01/02 03:38:13;;;;;;;47.55;26.73;;;;;;;2.37;74.82;102248.33;1734589;80;25713;-61
2023/01/02 03:40:45;;;;;;;45.80;26.62;;;;;;;2.39;74.97;102249.12;1739647;82;25953;-60
2023/01/02 03:43:20;;;;;;;41.73;25.68;;;;;;;2.38;75.15;102253.16;1740096;82;25995;-60
2023/01/02 03:46:14;;;;;;;41.92;24.92;;;;;;;2.40;75.36;102257.98;1714373;83;27590;-60
2023/01/02 03:49:08;;;;;;;38.78;23.60;;;;;;;2.43;75.67;102253.88;1739567;82;25891;-60
2023/01/02 03:51:35;;;;;;;41.47;24.67;;;;;;;2.49;76.00;102260.36;1714788;83;25780;-60
2023/01/02 03:54:03;;;;;;;41.73;24.40;;;;;;;2.53;76.04;102265.97;1740329;82;25912;-60
2023/01/02 03:56:47;;;;;;;44.65;24.37;;;;;;;2.57;76.01;102261.43;1714512;83;25707;-60
2023/01/02 03:59:22;;;;;;;43.70;26.42;;;;;;;2.58;75.95;102258.75;1740430;82;27428;-60
2023/01/02 04:02:14;;;;;;;39.80;24.10;;;;;;;2.59;76.14;102255.17;1688226;84;25932;-60
2023/01/02 04:05:20;;;;;;;38.28;23.20;;;;;;;2.64;76.35;102250.58;1740620;82;25829;-60
2023/01/02 04:08:11;;;;;;;43.63;25.88;;;;;;;2.75;76.54;102250.70;1737409;82;25915;-59
2023/01/02 04:10:40;;;;;;;43.45;25.40;;;;;;;2.85;76.68;102246.83;1737513;82;25873;-60
2023/01/02 04:13:12;;;;;;;40.60;23.87;;;;;;;2.93;76.74;102248.77;1746581;82;27702;-60
2023/01/02 04:15:41;;;;;;;41.45;23.50;;;;;;;3.00;76.69;102253.87;1746590;81;25671;-60
2023/01/02 04:18:36;;;;;;;42.73;24.07;;;;;;;3.03;76.55;102259.96;1747186;82;25731;-60
2023/01/02 04:21:09;;;;;;;39.83;24.77;;;;;;;3.10;76.50;102261.97;1724154;82;26754;-61
2023/01/02 04:23:46;;;;;;;42.70;24.37;;;;;;;3.15;76.31;102268.46;1747178;82;25813;-60
2023/01/02 04:26:30;;;;;;;40.35;24.12;;;;;;;3.11;76.14;102270.36;1746817;81;28506;-60
2023/01/02 04:28:57;;;;;;;47.13;26.15;;;;;;;3.06;75.92;102273.16;1747569;80;25834;-60
2023/01/02 04:31:38;;;;;;;48.63;25.55;;;;;;;2.97;75.45;102276.12;1742448;82;25801;-60
2023/01/02 04:34:08;;;;;;;43.73;25.77;;;;;;;2.94;75.57;102270.89;1700420;83;25814;-60
2023/01/02 04:36:39;;;;;;;45.12;24.40;;;;;;;2.91;75.62;102272.34;1708162;83;25809;-60
2023/01/02 04:39:07;;;;;;;47.00;26.30;;;;;;;2.87;75.47;102265.38;1701646;82;27468;-60
2023/01/02 04:41:36;;;;;;;41.98;26.50;;;;;;;2.81;75.43;102271.31;1718161;82;25874;-60
2023/01/02 04:44:03;;;;;;;42.65;26.23;;;;;;;2.73;75.19;102272.02;1722689;82;25797;-60
2023/01/02 04:46:30;;;;;;;43.73;24.35;;;;;;;2.66;75.05;102275.76;1713408;82;25847;-59
2023/01/02 04:48:57;;;;;;;41.42;25.68;;;;;;;2.58;75.03;102278.67;1711149;83;25826;-59
2023/01/02 04:51:24;;;;;;;45.73;25.50;;;;;;;2.54;74.87;102276.16;1714434;83;27473;-59
2023/01/02 04:53:53;;;;;;;42.95;25.37;;;;;;;2.45;75.03;102278.18;1718945;83;25993;-59
2023/01/02 04:56:21;;;;;;;42.60;23.73;;;;;;;2.43;75.21;102277.35;1719223;83;26310;-59
2023/01/02 04:58:49;;;;;;;46.73;24.05;;;;;;;2.40;75.32;102268.61;1719111;83;25784;-59
2023/01/02 05:01:19;;;;;;;39.27;23.92;;;;;;;2.40;75.52;102265.48;1723657;83;25502;-59
2023/01/02 05:03:48;;;;;;;39.42;23.92;;;;;;;2.42;75.65;102265.45;1715341;83;27586;-59
2023/01/02 05:06:15;;;;;;;39.03;22.48;;;;;;;2.42;75.83;102263.66;1745906;82;25811;-59
2023/01/02 05:08:43;;;;;;;41.77;22.77;;;;;;;2.42;75.78;102268.11;1745691;82;25705;-59
2023/01/02 05:11:14;;;;;;;41.98;25.43;;;;;;;2.41;75.93;102269.88;1745777;82;25805;-59
2023/01/02 05:13:41;;;;;;;40.95;23.90;;;;;;;2.41;75.94;102275.66;1744794;82;25852;-59
2023/01/02 05:16:08;;;;;;;37.75;22.17;;;;;;;2.42;76.15;102274.28;1745546;80;27476;-59
2023/01/02 05:18:36;;;;;;;49.67;25.00;;;;;;;2.41;76.20;102276.99;1722839;81;26171;-59
2023/01/02 05:23:48;;;;;;;44.88;26.68;;;;;;;2.45;76.12;102279.95;1692233;83;25888;-59
2023/01/02 05:26:16;;;;;;;54.20;29.32;;;;;;;2.50;76.24;102284.20;1710395;83;25765;-59
2023/01/02 05:28:44;;;;;;;54.53;30.52;;;;;;;2.55;76.22;102293.84;1709373;83;27455;-59
2023/01/02 05:31:12;;;;;;;57.25;30.72;;;;;;;2.59;76.35;102292.38;1711788;81;25723;-60
2023/01/02 05:33:39;;;;;;;53.78;29.57;;;;;;;2.63;76.39;102292.67;1744037;81;25436;-59
2023/01/02 05:36:08;;;;;;;52.58;29.15;;;;;;;2.71;76.34;102287.58;1727333;82;25752;-60
2023/01/02 05:38:38;;;;;;;55.48;29.60;;;;;;;2.77;76.13;102294.91;1743643;81;25750;-60
2023/01/02 05:41:07;;;;;;;56.30;30.15;;;;;;;2.80;76.13;102293.48;1743736;82;27619;-59
2023/01/02 05:43:36;;;;;;;60.52;30.17;;;;;;;2.81;75.89;102298.33;1743860;82;25805;-60
2023/01/02 05:46:13;;;;;;;58.10;29.72;;;;;;;2.77;76.00;102305.53;1743797;82;25692;-60
2023/01/02 05:48:41;;;;;;;71.10;32.42;;;;;;;2.77;76.19;102310.84;1742943;81;26803;-60
2023/01/02 05:51:11;;;;;;;64.45;32.78;;;;;;;2.79;76.39;102310.34;1743633;82;25804;-60
2023/01/02 05:53:40;;;;;;;69.35;32.15;;;;;;;2.80;76.31;102316.08;1743842;82;27415;-60
2023/01/02 05:56:12;;;;;;;92.70;28.98;;;;;;;2.81;76.41;102313.84;1743605;82;25462;-60
2023/01/02 05:58:42;;;;;;;115.10;29.37;;;;;;;2.83;76.23;102304.47;1743916;82;25841;-60
2023/01/02 06:01:16;;;;;;;63.23;28.42;;;;;;;2.79;76.17;102301.48;1743100;81;25798;-60
2023/01/02 06:03:52;;;;;;;52.30;28.75;;;;;;;2.72;76.01;102303.93;1725648;81;25767;-59
2023/01/02 06:06:22;;;;;;;50.52;29.60;;;;;;;2.69;76.24;102304.05;1752961;81;28256;-62
2023/01/02 06:08:49;;;;;;;52.25;28.57;;;;;;;2.70;76.41;102300.44;1748161;81;25891;-60
2023/01/02 06:11:16;;;;;;;49.23;28.57;;;;;;;2.71;76.68;102292.89;1758724;81;25734;-62
2023/01/02 06:13:42;;;;;;;52.78;28.12;;;;;;;2.74;77.00;102300.78;1758865;81;25780;-62
2023/01/02 06:16:10;;;;;;;46.98;25.05;;;;;;;2.78;77.13;102293.98;1758869;81;26152;-59
2023/01/02 06:18:38;;;;;;;44.42;26.75;;;;;;;2.85;77.34;102300.43;1758814;81;27483;-59
2023/01/02 06:21:09;;;;;;;42.48;25.82;;;;;;;2.91;77.50;102297.60;1751843;81;25808;-62
2023/01/02 06:23:37;;;;;;;44.50;26.95;;;;;;;2.96;77.68;102292.52;1759140;81;25798;-61
2023/01/02 06:26:14;;;;;;;46.65;27.37;;;;;;;3.06;78.23;102298.87;1758986;81;25876;-61
2023/01/02 06:28:41;;;;;;;46.15;26.90;;;;;;;3.15;78.40;102297.72;1758993;81;25864;-60
2023/01/02 06:31:13;;;;;;;43.52;27.67;;;;;;;3.24;78.69;102305.39;1758400;81;27472;-63
2023/01/02 06:33:40;;;;;;;46.55;27.82;;;;;;;3.31;78.66;102308.72;1739650;81;26556;-60
2023/01/02 06:36:15;;;;;;;48.25;27.93;;;;;;;3.35;78.54;102315.22;1752307;81;26798;-59
2023/01/02 06:38:44;;;;;;;51.15;28.17;;;;;;;3.38;78.47;102304.45;1762510;80;25954;-59
2023/01/02 06:41:12;;;;;;;54.30;29.25;;;;;;;3.42;78.53;102311.42;1759466;81;25686;-60
2023/01/02 06:43:45;;;;;;;46.42;28.62;;;;;;;3.48;78.58;102302.81;1759370;81;27052;-61
2023/01/02 06:46:18;;;;;;;49.65;27.82;;;;;;;3.50;78.50;102310.30;1759734;81;25733;-60
2023/01/02 06:48:45;;;;;;;48.40;26.93;;;;;;;3.57;78.61;102305.16;1759433;81;25712;-60
2023/01/02 06:51:17;;;;;;;44.90;26.68;;;;;;;3.64;78.49;102311.14;1759830;81;25761;-60
2023/01/02 06:53:44;;;;;;;44.60;27.13;;;;;;;3.64;78.27;102315.14;1759307;81;25744;-60
2023/01/02 06:56:14;;;;;;;45.55;26.75;;;;;;;3.68;78.11;102318.97;1759929;81;28095;-60
2023/01/02 06:58:41;;;;;;;40.52;25.52;;;;;;;3.72;78.02;102322.39;1741656;81;25936;-61
2023/01/02 07:01:15;;;;;;;44.03;25.72;;;;;;;3.78;78.20;102326.64;1735744;82;25794;-60
2023/01/02 07:03:43;;;;;;;47.17;24.60;;;;;;;3.81;78.22;102323.41;1742340;81;26506;-61
2023/01/02 07:06:13;;;;;;;50.67;24.90;;;;;;;3.84;78.04;102315.77;1747188;82;25766;-60
2023/01/02 07:08:42;;;;;;;46.37;26.85;;;;;;;3.88;78.03;102317.41;1746873;81;27487;-60
2023/01/02 07:11:17;;;;;;;48.08;26.85;;;;;;;3.93;77.95;102320.77;1747347;82;25750;-60
2023/01/02 07:13:46;;;;;;;62.83;28.07;;;;;;;3.96;77.75;102319.77;1746948;82;25766;-60
2023/01/02 07:16:16;;;;;;;70.42;29.50;;;;;;;3.96;77.39;102324.66;1746605;82;26372;-60
2023/01/02 07:18:43;;;;;;;62.75;31.77;;;;;;;3.96;77.34;102325.98;1748642;82;25821;-60
2023/01/02 07:21:12;;;;;;;86.20;33.30;;;;;;;3.94;77.16;102322.98;1746152;81;28299;-61
2023/01/02 07:23:40;;;;;;;99.75;39.23;;;;;;;3.94;77.12;102327.83;1748588;82;25731;-59
2023/01/02 07:26:07;;;;;;;87.92;37.85;;;;;;;3.94;77.18;102334.97;1749014;82;25849;-61
2023/01/02 07:28:35;;;;;;;90.20;36.93;;;;;;;3.90;76.83;102333.73;1748815;82;26513;-60
2023/01/02 07:31:06;;;;;;;108.52;40.20;;;;;;;3.88;76.93;102323.59;1748956;81;25779;-60
2023/01/02 07:33:34;;;;;;;95.00;39.58;;;;;;;3.86;76.97;102327.23;1730723;81;28175;-60
2023/01/02 07:36:06;;;;;;;79.37;36.60;;;;;;;3.84;76.85;102315.77;1701707;83;25933;-61
2023/01/02 07:38:34;;;;;;;74.55;40.98;;;;;;;3.85;76.92;102317.50;1722562;82;25817;-60
2023/01/02 07:41:01;;;;;;;147.95;46.50;;;;;;;3.83;77.10;102313.58;1771493;80;25926;-60
2023/01/02 07:43:28;;;;;;;136.22;46.20;;;;;;;3.83;77.21;102314.91;1775358;80;25760;-60
2023/01/02 07:46:02;;;;;;;78.40;45.70;;;;;;;3.83;77.22;102319.34;1774864;80;27436;-60
2023/01/02 07:48:31;;;;;;;77.12;41.33;;;;;;;3.87;77.44;102318.33;1747456;80;25825;-61
2023/01/02 07:51:04;;;;;;;65.20;37.23;;;;;;;3.90;77.78;102321.75;1732881;82;25691;-61
2023/01/02 07:53:32;;;;;;;65.12;35.52;;;;;;;3.97;77.88;102322.41;1732803;82;25829;-61
2023/01/02 07:56:01;;;;;;;52.10;32.03;;;;;;;4.02;77.98;102328.90;1732585;82;25968;-60
2023/01/02 07:58:28;;;;;;;56.75;32.85;;;;;;;4.10;78.28;102328.16;1724721;82;27571;-61
2023/01/02 08:00:56;;;;;;;51.05;30.27;;;;;;;4.19;78.58;102323.83;1731885;81;25882;-60
2023/01/02 08:03:23;;;;;;;45.65;28.27;;;;;;;4.33;78.87;102327.76;1737730;82;25701;-60
2023/01/02 08:05:50;;;;;;;43.00;27.48;;;;;;;4.48;79.14;102322.31;1739340;82;26028;-61
2023/01/02 08:08:17;;;;;;;37.98;24.70;;;;;;;4.64;79.29;102328.80;1739873;82;25818;-60
2023/01/02 08:10:43;;;;;;;36.00;24.30;;;;;;;4.81;79.56;102328.59;1739587;82;27553;-60
2023/01/02 08:13:10;;;;;;;38.10;23.92;;;;;;;5.00;79.78;102323.42;1739480;82;25861;-59
2023/01/02 08:15:37;;;;;;;38.88;25.02;;;;;;;5.21;79.89;102321.67;1771459;80;25730;-60
2023/01/02 08:18:03;;;;;;;42.15;25.52;;;;;;;5.42;80.01;102323.91;1781594;80;25865;-61
2023/01/02 08:20:30;;;;;;;50.70;31.75;;;;;;;5.64;79.90;102317.19;1780194;80;25826;-60
2023/01/02 08:22:57;;;;;;;45.73;30.60;;;;;;;5.87;79.88;102321.98;1778191;80;28335;-60
2023/01/02 08:25:24;;;;;;;53.20;31.82;;;;;;;6.08;79.57;102317.55;1769340;81;25769;-60
2023/01/02 08:27:51;;;;;;;54.00;31.77;;;;;;;6.28;79.36;102321.58;1768935;81;25789;-60
2023/01/02 08:30:17;;;;;;;54.10;32.45;;;;;;;6.48;78.87;102316.19;1769344;81;25826;-61
2023/01/02 08:32:44;;;;;;;54.88;33.67;;;;;;;6.69;78.33;102319.66;1760091;80;25812;-60
2023/01/02 08:35:11;;;;;;;51.05;31.73;;;;;;;6.86;78.00;102321.99;1764185;81;27332;-60
2023/01/02 08:37:38;;;;;;;47.93;29.12;;;;;;;7.02;77.64;102327.48;1756650;81;25717;-60
2023/01/02 08:40:07;;;;;;;64.05;34.18;;;;;;;7.31;77.40;102329.16;1763480;81;25857;-60
2023/01/02 08:42:34;;;;;;;49.58;31.45;;;;;;;7.79;77.01;102329.45;1765856;81;25777;-60
2023/01/02 08:45:01;;;;;;;51.08;31.42;;;;;;;8.26;76.26;102323.84;1768926;80;25690;-61
2023/01/02 08:47:28;;;;;;;58.17;33.10;;;;;;;8.80;75.75;102322.73;1780920;80;27530;-61
2023/01/02 08:49:54;;;;;;;49.33;30.72;;;;;;;9.26;75.01;102316.08;1780690;80;25503;-60
2023/01/02 08:52:21;;;;;;;49.18;31.30;;;;;;;9.81;74.49;102321.80;1781163;80;26576;-60
2023/01/02 08:54:48;;;;;;;45.28;31.17;;;;;;;10.38;73.61;102311.59;1781299;80;25736;-60
2023/01/02 08:57:16;;;;;;;43.30;27.75;;;;;;;10.92;73.25;102312.66;1780886;80;25890;-60
2023/01/02 08:59:43;;;;;;;80.28;50.08;;;;;;;11.50;71.86;102311.94;1780832;80;27448;-60
2023/01/02 09:02:13;;;;;;;35.08;24.43;;;;;;;11.83;69.30;102307.03;1774297;80;25872;-60
2023/01/02 09:04:41;;;;;;;40.63;25.10;;;;;;;12.08;67.78;102300.78;1768472;80;25707;-60
2023/01/02 09:07:08;;;;;;;41.00;25.32;;;;;;;12.34;67.80;102308.39;1769176;81;25803;-60
2023/01/02 09:09:35;;;;;;;36.70;24.70;;;;;;;12.78;67.03;102302.05;1769508;81;25858;-61
2023/01/02 09:12:02;;;;;;;35.73;25.43;;;;;;;13.24;66.03;102291.02;1769188;81;27474;-60
2023/01/02 09:14:29;;;;;;;32.38;23.02;;;;;;;13.50;64.25;102290.01;1769479;81;25766;-60
2023/01/02 09:16:59;;;;;;;27.32;20.30;;;;;;;13.81;63.09;102291.20;1759087;80;25820;-60
2023/01/02 09:19:26;;;;;;;32.93;22.30;;;;;;;13.87;61.72;102281.74;1775046;80;26437;-61
2023/01/02 09:21:53;;;;;;;28.73;20.82;;;;;;;14.03;61.09;102279.53;1781314;80;25825;-61
2023/01/02 09:24:20;;;;;;;31.05;20.37;;;;;;;14.14;60.23;102275.12;1781178;80;27495;-61
2023/01/02 09:26:47;;;;;;;28.15;21.12;;;;;;;14.32;59.66;102262.81;1781075;80;25789;-62
2023/01/02 09:29:15;;;;;;;28.23;20.70;;;;;;;14.60;59.74;102264.63;1774688;80;25496;-60
2023/01/02 09:31:42;;;;;;;30.17;20.75;;;;;;;15.07;58.95;102253.55;1774585;80;25741;-61
2023/01/02 09:34:09;;;;;;;30.80;21.57;;;;;;;15.52;58.76;102247.05;1794437;79;25775;-61
2023/01/02 09:36:36;;;;;;;31.68;22.22;;;;;;;15.83;57.43;102243.00;1801231;79;27534;-61
2023/01/02 09:39:05;;;;;;;28.12;20.40;;;;;;;16.09;54.97;102246.68;1735058;80;25713;-60
2023/01/02 09:41:54;;;;;;;26.70;19.82;;;;;;;16.38;54.36;102233.20;1719957;82;25753;-61
2023/01/02 09:44:49;;;;;;;24.95;19.55;;;;;;;16.51;52.79;102232.94;1782300;79;26566;-61
2023/01/02 09:47:24;;;;;;;29.32;20.90;;;;;;;16.77;52.83;102227.45;1780532;79;25752;-60
2023/01/02 09:49:55;;;;;;;28.75;20.97;;;;;;;16.96;51.35;102217.98;1779822;79;27411;-61
2023/01/02 09:52:30;;;;;;;24.95;20.35;;;;;;;17.15;50.38;102213.06;1784660;79;25810;-60
2023/01/02 09:54:57;;;;;;;27.27;20.62;;;;;;;17.41;52.05;102208.86;1792195;79;25887;-61
2023/01/02 09:57:33;;;;;;;30.15;22.67;;;;;;;17.81;50.20;102200.95;1771816;79;25899;-61
2023/01/02 10:00:20;;;;;;;31.37;23.40;;;;;;;18.11;49.70;102208.50;1766862;81;27343;-61
2023/01/02 10:03:01;;;;;;;35.45;23.12;;;;;;;18.34;49.77;102202.66;1755034;81;28291;-61
2023/01/02 10:05:54;;;;;;;31.70;22.45;;;;;;;18.67;49.24;102195.70;1765632;80;26120;-61
2023/01/02 10:08:32;;;;;;;33.00;22.40;;;;;;;19.08;48.94;102195.25;1781876;80;25726;-61
2023/01/02 10:11:19;;;;;;;29.85;21.93;;;;;;;19.64;48.08;102184.88;1775297;79;27891;-62
2023/01/02 10:13:54;;;;;;;30.70;22.37;;;;;;;20.07;47.25;102186.81;1686204;82;25899;-61
2023/01/02 10:16:30;;;;;;;30.57;22.05;;;;;;;20.61;46.11;102183.73;1772164;80;46352;-62
2023/01/02 10:19:01;;;;;;;29.63;22.32;;;;;;;20.95;44.75;102175.40;1775769;80;25839;-62
2023/01/02 10:21:33;;;;;;;30.08;21.50;;;;;;;21.36;44.58;102176.41;1773214;80;25778;-62
2023/01/02 10:24:16;;;;;;;;;;;;;;;21.40;42.99;102170.91;1775513;80;25837;-62
2023/01/02 10:26:51;;;;;;;34.92;21.90;;;;;;;21.39;41.49;102171.93;1779595;80;25763;-62
2023/01/02 10:29:29;;;;;;;27.73;21.12;;;;;;;21.55;42.83;102160.09;1778686;80;27479;-62
2023/01/02 10:32:13;;;;;;;27.00;20.72;;;;;;;21.72;42.29;102160.41;1764302;80;25735;-62
2023/01/02 10:34:54;;;;;;;28.77;18.77;;;;;;;22.13;41.44;102164.86;1781253;79;25754;-62
2023/01/02 10:37:21;;;;;;;23.52;18.82;;;;;;;22.54;41.57;102157.47;1783003;79;26637;-62
2023/01/02 10:39:50;;;;;;;24.72;18.23;;;;;;;22.62;39.53;102156.88;1740586;80;25953;-62
2023/01/02 10:42:18;;;;;;;24.10;17.25;;;;;;;22.34;38.94;102160.11;1777407;80;28446;-61
2023/01/02 10:44:46;;;;;;;23.77;18.05;;;;;;;22.21;39.13;102157.12;1772816;80;25793;-62
2023/01/02 10:47:27;;;;;;;22.77;18.32;;;;;;;22.06;39.57;102159.77;1765853;80;26409;-62
2023/01/02 10:49:56;;;;;;;24.23;17.57;;;;;;;;;;1770183;80;25830;-61
2023/01/02 10:52:52;;;;;;;25.12;18.50;;;;;;;22.01;39.66;102151.21;1763963;80;26358;-62
2023/01/02 10:55:41;;;;;;;23.12;18.20;;;;;;;22.14;39.72;102146.02;1776333;80;27425;-62
2023/01/02 10:58:27;;;;;;;23.92;19.32;;;;;;;22.54;40.16;102139.11;1768377;80;25700;-62
2023/01/02 11:01:20;;;;;;;29.25;20.05;;;;;;;23.03;38.65;102138.38;1731687;82;25648;-62
2023/01/02 11:03:54;;;;;;;23.40;19.45;;;;;;;23.14;37.62;102129.67;1741931;80;25820;-61
2023/01/02 11:06:30;;;;;;;24.85;19.87;;;;;;;22.94;37.71;102125.23;1740060;80;26168;-62
2023/01/02 11:09:08;;;;;;;24.57;19.25;;;;;;;23.01;37.63;102126.73;1742611;80;28315;-62
2023/01/02 11:11:35;;;;;;;28.42;19.50;;;;;;;22.85;37.61;102124.48;1739947;82;25747;-62
2023/01/02 11:14:09;;;;;;;27.87;20.80;;;;;;;23.02;37.85;102115.55;1742033;82;25813;-62
2023/01/02 11:16:38;;;;;;;32.28;24.15;;;;;;;23.28;38.11;102120.66;1742233;82;26531;-62
2023/01/02 11:19:08;;;;;;;30.60;24.45;;;;;;;23.50;36.23;102113.03;1750782;80;25519;-62
2023/01/02 11:21:39;;;;;;;32.60;23.25;;;;;;;23.44;37.02;102111.89;1754128;80;27592;-62
2023/01/02 11:24:14;;;;;;;30.50;23.25;;;;;;;23.39;35.70;102104.75;1751820;81;25599;-62
2023/01/02 11:26:42;;;;;;;28.15;22.87;;;;;;;22.94;36.52;102100.55;1751860;81;25784;-62
2023/01/02 11:29:28;;;;;;;31.37;21.07;;;;;;;22.29;36.74;102098.64;1750023;80;25948;-62
2023/01/02 11:31:59;;;;;;;26.90;20.35;;;;;;;21.91;37.31;102092.54;1742910;80;25472;-62
2023/01/02 11:34:36;;;;;;;32.40;21.52;;;;;;;21.70;38.06;102087.69;1749222;80;28462;-62
2023/01/02 11:37:16;;;;;;;32.00;23.30;;;;;;;21.62;38.10;102080.87;1749349;81;25775;-62
2023/01/02 11:40:00;;;;;;;31.25;23.52;;;;;;;21.44;37.98;102081.94;1743835;81;25715;-62
2023/01/02 11:45:35;;;;;;;30.45;22.37;;;;;;;20.44;39.37;102077.61;1719652;83;25921;-62